sensor_id;sensor_type;location;lat;lon;timestamp;P1;durP1;ratioP1;P2;durP2;ratioP2
31004;SDS011;17676;52.254;4.490;2023-05-10T00:00:11;37.53;;;30.52;;
31004;SDS011;17676;52.254;4.490;2023-05-10T00:02:37;38.42;;;32.30;;
31004;SDS011;17676;52.254;4.490;2023-05-10T00:05:03;40.03;;;34.03;;
31004;SDS011;17676;52.254;4.490;2023-05-10T00:07:31;42.17;;;34.00;;
31004;SDS011;17676;52.254;4.490;2023-05-10T00:09:56;34.60;;;30.88;;
31004;SDS011;17676;52.254;4.490;2023-05-10T00:12:23;39.08;;;32.78;;
31004;SDS011;17676;52.254;4.490;2023-05-10T00:14:48;38.28;;;33.72;;
31004;SDS011;17676;52.254;4.490;2023-05-10T00:17:14;41.63;;;34.33;;
31004;SDS011;17676;52.254;4.490;2023-05-10T00:19:39;37.70;;;32.50;;
31004;SDS011;17676;52.254;4.490;2023-05-10T00:22:05;40.70;;;32.17;;
31004;SDS011;17676;52.254;4.490;2023-05-10T00:24:31;44.65;;;32.13;;
31004;SDS011;17676;52.254;4.490;2023-05-10T00:26:57;38.15;;;29.33;;
31004;SDS011;17676;52.254;4.490;2023-05-10T00:29:22;36.97;;;29.88;;
31004;SDS011;17676;52.254;4.490;2023-05-10T00:31:49;32.65;;;27.90;;
31004;SDS011;17676;52.254;4.490;2023-05-10T00:34:14;33.80;;;29.20;;
31004;SDS011;17676;52.254;4.490;2023-05-10T00:36:40;36.63;;;29.85;;
31004;SDS011;17676;52.254;4.490;2023-05-10T00:39:05;39.55;;;29.88;;
31004;SDS011;17676;52.254;4.490;2023-05-10T00:41:31;34.38;;;28.27;;
31004;SDS011;17676;52.254;4.490;2023-05-10T00:43:57;35.22;;;29.58;;
31004;SDS011;17676;52.254;4.490;2023-05-10T00:46:23;39.63;;;30.17;;
31004;SDS011;17676;52.254;4.490;2023-05-10T00:48:49;37.03;;;29.27;;
31004;SDS011;17676;52.254;4.490;2023-05-10T00:51:15;36.58;;;30.48;;
31004;SDS011;17676;52.254;4.490;2023-05-10T00:53:41;37.88;;;31.75;;
31004;SDS011;17676;52.254;4.490;2023-05-10T00:56:06;36.95;;;30.40;;
31004;SDS011;17676;52.254;4.490;2023-05-10T00:58:32;39.00;;;31.50;;
31004;SDS011;17676;52.254;4.490;2023-05-10T01:00:58;35.88;;;31.95;;
31004;SDS011;17676;52.254;4.490;2023-05-10T01:03:24;39.05;;;31.17;;
31004;SDS011;17676;52.254;4.490;2023-05-10T01:05:50;35.92;;;29.70;;
31004;SDS011;17676;52.254;4.490;2023-05-10T01:08:16;33.95;;;29.10;;
31004;SDS011;17676;52.254;4.490;2023-05-10T01:10:42;41.55;;;29.90;;
31004;SDS011;17676;52.254;4.490;2023-05-10T01:13:09;39.97;;;29.92;;
31004;SDS011;17676;52.254;4.490;2023-05-10T01:15:34;43.88;;;32.88;;
31004;SDS011;17676;52.254;4.490;2023-05-10T01:18:01;37.85;;;30.75;;
31004;SDS011;17676;52.254;4.490;2023-05-10T01:20:29;45.28;;;33.22;;
31004;SDS011;17676;52.254;4.490;2023-05-10T01:23:09;41.75;;;31.08;;
31004;SDS011;17676;52.254;4.490;2023-05-10T01:28:39;38.10;;;29.00;;
31004;SDS011;17676;52.254;4.490;2023-05-10T01:34:27;35.38;;;27.90;;
31004;SDS011;17676;52.254;4.490;2023-05-10T01:37:10;43.10;;;29.48;;
31004;SDS011;17676;52.254;4.490;2023-05-10T01:40:02;34.78;;;28.00;;
31004;SDS011;17676;52.254;4.490;2023-05-10T01:42:32;37.42;;;31.30;;
31004;SDS011;17676;52.254;4.490;2023-05-10T01:45:14;33.28;;;29.15;;
31004;SDS011;17676;52.254;4.490;2023-05-10T01:47:52;45.05;;;31.52;;
31004;SDS011;17676;52.254;4.490;2023-05-10T01:50:29;37.95;;;30.52;;
31004;SDS011;17676;52.254;4.490;2023-05-10T01:52:58;53.40;;;36.58;;
31004;SDS011;17676;52.254;4.490;2023-05-10T01:55:27;41.33;;;34.55;;
31004;SDS011;17676;52.254;4.490;2023-05-10T01:57:59;48.40;;;37.28;;
31004;SDS011;17676;52.254;4.490;2023-05-10T02:00:29;46.55;;;36.20;;
31004;SDS011;17676;52.254;4.490;2023-05-10T02:02:56;50.35;;;39.00;;
31004;SDS011;17676;52.254;4.490;2023-05-10T02:05:22;46.67;;;36.78;;
31004;SDS011;17676;52.254;4.490;2023-05-10T02:07:50;62.22;;;43.80;;
31004;SDS011;17676;52.254;4.490;2023-05-10T02:10:16;56.72;;;41.00;;
31004;SDS011;17676;52.254;4.490;2023-05-10T02:12:46;54.72;;;39.67;;
31004;SDS011;17676;52.254;4.490;2023-05-10T02:15:15;70.53;;;45.03;;
31004;SDS011;17676;52.254;4.490;2023-05-10T02:17:45;53.70;;;41.40;;
31004;SDS011;17676;52.254;4.490;2023-05-10T02:20:12;60.08;;;45.83;;
31004;SDS011;17676;52.254;4.490;2023-05-10T02:22:40;49.35;;;38.28;;
31004;SDS011;17676;52.254;4.490;2023-05-10T02:25:10;61.83;;;40.78;;
31004;SDS011;17676;52.254;4.490;2023-05-10T02:27:38;50.95;;;40.30;;
31004;SDS011;17676;52.254;4.490;2023-05-10T02:30:06;60.60;;;44.90;;
31004;SDS011;17676;52.254;4.490;2023-05-10T02:32:33;60.28;;;41.80;;
31004;SDS011;17676;52.254;4.490;2023-05-10T02:34:59;62.47;;;43.40;;
31004;SDS011;17676;52.254;4.490;2023-05-10T02:37:27;94.85;;;45.13;;
31004;SDS011;17676;52.254;4.490;2023-05-10T02:39:54;66.97;;;47.40;;
31004;SDS011;17676;52.254;4.490;2023-05-10T02:42:25;66.20;;;46.25;;
31004;SDS011;17676;52.254;4.490;2023-05-10T02:44:53;60.92;;;44.55;;
31004;SDS011;17676;52.254;4.490;2023-05-10T02:47:21;58.20;;;38.75;;
31004;SDS011;17676;52.254;4.490;2023-05-10T02:49:47;61.28;;;44.75;;
31004;SDS011;17676;52.254;4.490;2023-05-10T02:52:14;75.65;;;42.42;;
31004;SDS011;17676;52.254;4.490;2023-05-10T02:54:45;82.70;;;39.47;;
31004;SDS011;17676;52.254;4.490;2023-05-10T02:57:15;67.68;;;38.90;;
31004;SDS011;17676;52.254;4.490;2023-05-10T02:59:45;64.28;;;37.55;;
31004;SDS011;17676;52.254;4.490;2023-05-10T03:02:13;81.72;;;39.20;;
31004;SDS011;17676;52.254;4.490;2023-05-10T03:04:39;89.82;;;36.60;;
31004;SDS011;17676;52.254;4.490;2023-05-10T03:07:05;98.85;;;30.10;;
31004;SDS011;17676;52.254;4.490;2023-05-10T03:09:31;81.50;;;22.63;;
31004;SDS011;17676;52.254;4.490;2023-05-10T03:20:12;30.90;;;17.00;;
31004;SDS011;17676;52.254;4.490;2023-05-10T03:22:51;34.20;;;17.88;;
31004;SDS011;17676;52.254;4.490;2023-05-10T03:25:20;27.08;;;17.83;;
31004;SDS011;17676;52.254;4.490;2023-05-10T03:27:47;28.73;;;17.20;;
31004;SDS011;17676;52.254;4.490;2023-05-10T03:30:14;25.67;;;17.20;;
31004;SDS011;17676;52.254;4.490;2023-05-10T03:32:41;29.95;;;18.08;;
31004;SDS011;17676;52.254;4.490;2023-05-10T03:35:07;25.98;;;17.17;;
31004;SDS011;17676;52.254;4.490;2023-05-10T03:37:37;29.30;;;16.20;;
31004;SDS011;17676;52.254;4.490;2023-05-10T03:40:03;31.70;;;16.58;;
31004;SDS011;17676;52.254;4.490;2023-05-10T03:42:29;30.45;;;16.95;;
31004;SDS011;17676;52.254;4.490;2023-05-10T03:44:54;38.47;;;16.67;;
31004;SDS011;17676;52.254;4.490;2023-05-10T03:47:20;35.65;;;17.27;;
31004;SDS011;17676;52.254;4.490;2023-05-10T03:49:45;29.42;;;17.45;;
31004;SDS011;17676;52.254;4.490;2023-05-10T03:52:11;36.17;;;17.63;;
31004;SDS011;17676;52.254;4.490;2023-05-10T03:54:37;23.25;;;16.48;;
31004;SDS011;17676;52.254;4.490;2023-05-10T03:57:02;23.80;;;16.45;;
31004;SDS011;17676;52.254;4.490;2023-05-10T03:59:28;21.10;;;15.43;;
31004;SDS011;17676;52.254;4.490;2023-05-10T04:01:55;18.13;;;15.73;;
31004;SDS011;17676;52.254;4.490;2023-05-10T04:04:21;23.70;;;15.90;;
31004;SDS011;17676;52.254;4.490;2023-05-10T04:06:47;25.75;;;17.27;;
31004;SDS011;17676;52.254;4.490;2023-05-10T04:09:12;25.30;;;16.73;;
31004;SDS011;17676;52.254;4.490;2023-05-10T04:11:38;24.65;;;17.70;;
31004;SDS011;17676;52.254;4.490;2023-05-10T04:14:04;27.88;;;17.67;;
31004;SDS011;17676;52.254;4.490;2023-05-10T04:16:30;27.15;;;17.67;;
31004;SDS011;17676;52.254;4.490;2023-05-10T04:18:55;25.77;;;16.02;;
31004;SDS011;17676;52.254;4.490;2023-05-10T04:21:22;20.45;;;15.85;;
31004;SDS011;17676;52.254;4.490;2023-05-10T04:23:47;24.38;;;14.82;;
31004;SDS011;17676;52.254;4.490;2023-05-10T04:26:13;19.15;;;14.27;;
31004;SDS011;17676;52.254;4.490;2023-05-10T04:28:39;19.70;;;13.40;;
31004;SDS011;17676;52.254;4.490;2023-05-10T04:31:05;23.42;;;14.85;;
31004;SDS011;17676;52.254;4.490;2023-05-10T04:33:32;22.48;;;15.10;;
31004;SDS011;17676;52.254;4.490;2023-05-10T04:35:58;21.10;;;15.13;;
31004;SDS011;17676;52.254;4.490;2023-05-10T04:38:24;20.17;;;15.65;;
31004;SDS011;17676;52.254;4.490;2023-05-10T04:40:50;27.90;;;17.65;;
31004;SDS011;17676;52.254;4.490;2023-05-10T04:43:16;27.20;;;17.90;;
31004;SDS011;17676;52.254;4.490;2023-05-10T04:45:41;30.63;;;17.48;;
31004;SDS011;17676;52.254;4.490;2023-05-10T04:48:07;31.17;;;18.27;;
31004;SDS011;17676;52.254;4.490;2023-05-10T04:50:32;27.27;;;17.23;;
31004;SDS011;17676;52.254;4.490;2023-05-10T04:52:58;35.13;;;19.75;;
31004;SDS011;17676;52.254;4.490;2023-05-10T04:55:24;29.40;;;18.15;;
31004;SDS011;17676;52.254;4.490;2023-05-10T04:57:50;32.78;;;18.60;;
31004;SDS011;17676;52.254;4.490;2023-05-10T05:00:15;28.92;;;18.13;;
31004;SDS011;17676;52.254;4.490;2023-05-10T05:02:44;27.60;;;18.48;;
31004;SDS011;17676;52.254;4.490;2023-05-10T05:05:11;33.22;;;18.08;;
31004;SDS011;17676;52.254;4.490;2023-05-10T05:07:37;34.42;;;18.15;;
31004;SDS011;17676;52.254;4.490;2023-05-10T05:10:04;25.63;;;17.60;;
31004;SDS011;17676;52.254;4.490;2023-05-10T05:12:31;30.25;;;17.55;;
31004;SDS011;17676;52.254;4.490;2023-05-10T05:14:56;32.63;;;18.52;;
31004;SDS011;17676;52.254;4.490;2023-05-10T05:17:22;26.30;;;17.30;;
31004;SDS011;17676;52.254;4.490;2023-05-10T05:19:48;31.02;;;18.35;;
31004;SDS011;17676;52.254;4.490;2023-05-10T05:22:13;28.60;;;18.75;;
31004;SDS011;17676;52.254;4.490;2023-05-10T05:24:39;27.33;;;17.67;;
31004;SDS011;17676;52.254;4.490;2023-05-10T05:27:04;21.80;;;16.00;;
31004;SDS011;17676;52.254;4.490;2023-05-10T05:29:31;22.13;;;14.10;;
31004;SDS011;17676;52.254;4.490;2023-05-10T05:31:57;22.92;;;13.93;;
31004;SDS011;17676;52.254;4.490;2023-05-10T05:34:22;18.02;;;13.70;;
31004;SDS011;17676;52.254;4.490;2023-05-10T05:36:49;21.83;;;13.73;;
31004;SDS011;17676;52.254;4.490;2023-05-10T05:39:17;17.67;;;12.82;;
31004;SDS011;17676;52.254;4.490;2023-05-10T05:41:43;13.85;;;10.77;;
31004;SDS011;17676;52.254;4.490;2023-05-10T05:44:08;14.85;;;11.43;;
31004;SDS011;17676;52.254;4.490;2023-05-10T05:46:35;13.93;;;11.10;;
31004;SDS011;17676;52.254;4.490;2023-05-10T05:49:01;16.27;;;11.55;;
31004;SDS011;17676;52.254;4.490;2023-05-10T05:51:26;14.95;;;9.95;;
31004;SDS011;17676;52.254;4.490;2023-05-10T05:53:52;10.88;;;8.77;;
31004;SDS011;17676;52.254;4.490;2023-05-10T05:56:18;8.57;;;7.32;;
31004;SDS011;17676;52.254;4.490;2023-05-10T05:58:49;8.40;;;7.50;;
31004;SDS011;17676;52.254;4.490;2023-05-10T06:01:15;9.63;;;7.40;;
31004;SDS011;17676;52.254;4.490;2023-05-10T06:03:41;7.15;;;6.45;;
31004;SDS011;17676;52.254;4.490;2023-05-10T06:06:07;7.65;;;6.93;;
31004;SDS011;17676;52.254;4.490;2023-05-10T06:08:32;7.68;;;6.43;;
31004;SDS011;17676;52.254;4.490;2023-05-10T06:10:58;6.72;;;5.80;;
31004;SDS011;17676;52.254;4.490;2023-05-10T06:13:24;6.97;;;5.53;;
31004;SDS011;17676;52.254;4.490;2023-05-10T06:15:53;7.00;;;5.72;;
31004;SDS011;17676;52.254;4.490;2023-05-10T06:18:19;5.63;;;4.68;;
31004;SDS011;17676;52.254;4.490;2023-05-10T06:20:44;5.00;;;4.60;;
31004;SDS011;17676;52.254;4.490;2023-05-10T06:23:10;3.58;;;2.45;;
31004;SDS011;17676;52.254;4.490;2023-05-10T06:25:36;2.63;;;2.42;;
31004;SDS011;17676;52.254;4.490;2023-05-10T06:28:02;2.28;;;1.77;;
31004;SDS011;17676;52.254;4.490;2023-05-10T06:30:27;2.42;;;1.65;;
31004;SDS011;17676;52.254;4.490;2023-05-10T06:32:53;2.17;;;1.85;;
31004;SDS011;17676;52.254;4.490;2023-05-10T06:35:19;1.90;;;1.80;;
31004;SDS011;17676;52.254;4.490;2023-05-10T06:37:45;3.63;;;2.15;;
31004;SDS011;17676;52.254;4.490;2023-05-10T06:40:11;2.67;;;2.42;;
31004;SDS011;17676;52.254;4.490;2023-05-10T06:42:37;2.42;;;2.22;;
31004;SDS011;17676;52.254;4.490;2023-05-10T06:45:03;3.05;;;2.80;;
31004;SDS011;17676;52.254;4.490;2023-05-10T06:47:28;3.33;;;3.13;;
31004;SDS011;17676;52.254;4.490;2023-05-10T06:49:54;4.30;;;3.97;;
31004;SDS011;17676;52.254;4.490;2023-05-10T06:52:20;5.30;;;3.10;;
31004;SDS011;17676;52.254;4.490;2023-05-10T06:54:46;3.65;;;3.35;;
31004;SDS011;17676;52.254;4.490;2023-05-10T06:57:12;4.32;;;3.70;;
31004;SDS011;17676;52.254;4.490;2023-05-10T06:59:37;4.20;;;3.55;;
31004;SDS011;17676;52.254;4.490;2023-05-10T07:02:03;5.40;;;3.85;;
31004;SDS011;17676;52.254;4.490;2023-05-10T07:04:29;3.67;;;3.38;;
31004;SDS011;17676;52.254;4.490;2023-05-10T07:06:55;4.82;;;3.60;;
31004;SDS011;17676;52.254;4.490;2023-05-10T07:09:22;4.30;;;4.00;;
31004;SDS011;17676;52.254;4.490;2023-05-10T07:11:49;5.15;;;4.65;;
31004;SDS011;17676;52.254;4.490;2023-05-10T07:14:15;4.90;;;4.50;;
31004;SDS011;17676;52.254;4.490;2023-05-10T07:16:41;4.90;;;4.40;;
31004;SDS011;17676;52.254;4.490;2023-05-10T07:19:06;6.07;;;5.05;;
31004;SDS011;17676;52.254;4.490;2023-05-10T07:21:32;5.15;;;4.65;;
31004;SDS011;17676;52.254;4.490;2023-05-10T07:23:58;8.63;;;4.68;;
31004;SDS011;17676;52.254;4.490;2023-05-10T07:26:25;4.38;;;3.92;;
31004;SDS011;17676;52.254;4.490;2023-05-10T07:28:50;4.53;;;3.53;;
31004;SDS011;17676;52.254;4.490;2023-05-10T07:31:16;6.43;;;3.92;;
31004;SDS011;17676;52.254;4.490;2023-05-10T07:33:42;4.75;;;4.28;;
31004;SDS011;17676;52.254;4.490;2023-05-10T07:36:07;6.15;;;3.92;;
31004;SDS011;17676;52.254;4.490;2023-05-10T07:38:33;4.80;;;4.18;;
31004;SDS011;17676;52.254;4.490;2023-05-10T07:40:59;4.22;;;3.70;;
31004;SDS011;17676;52.254;4.490;2023-05-10T07:43:25;4.28;;;3.60;;
31004;SDS011;17676;52.254;4.490;2023-05-10T07:45:51;5.47;;;3.10;;
31004;SDS011;17676;52.254;4.490;2023-05-10T07:48:16;3.78;;;3.15;;
31004;SDS011;17676;52.254;4.490;2023-05-10T07:50:42;3.88;;;2.80;;
31004;SDS011;17676;52.254;4.490;2023-05-10T07:53:10;3.53;;;2.58;;
31004;SDS011;17676;52.254;4.490;2023-05-10T07:55:39;3.90;;;2.58;;
31004;SDS011;17676;52.254;4.490;2023-05-10T07:58:05;2.10;;;2.00;;
31004;SDS011;17676;52.254;4.490;2023-05-10T08:00:30;2.22;;;1.80;;
31004;SDS011;17676;52.254;4.490;2023-05-10T08:02:56;2.15;;;1.17;;
31004;SDS011;17676;52.254;4.490;2023-05-10T08:05:21;2.10;;;1.90;;
31004;SDS011;17676;52.254;4.490;2023-05-10T08:07:47;3.58;;;1.35;;
31004;SDS011;17676;52.254;4.490;2023-05-10T08:10:13;1.80;;;0.98;;
31004;SDS011;17676;52.254;4.490;2023-05-10T08:12:38;3.88;;;1.40;;
31004;SDS011;17676;52.254;4.490;2023-05-10T08:15:07;1.98;;;1.30;;
31004;SDS011;17676;52.254;4.490;2023-05-10T08:17:33;4.78;;;1.50;;
31004;SDS011;17676;52.254;4.490;2023-05-10T08:19:59;4.80;;;1.40;;
31004;SDS011;17676;52.254;4.490;2023-05-10T08:22:25;2.03;;;1.17;;
31004;SDS011;17676;52.254;4.490;2023-05-10T08:24:51;6.70;;;1.60;;
31004;SDS011;17676;52.254;4.490;2023-05-10T08:27:16;2.60;;;1.30;;
31004;SDS011;17676;52.254;4.490;2023-05-10T08:29:42;3.45;;;1.13;;
31004;SDS011;17676;52.254;4.490;2023-05-10T08:32:13;4.80;;;0.93;;
31004;SDS011;17676;52.254;4.490;2023-05-10T08:34:38;2.05;;;0.82;;
31004;SDS011;17676;52.254;4.490;2023-05-10T08:37:06;1.83;;;0.80;;
31004;SDS011;17676;52.254;4.490;2023-05-10T08:39:38;5.40;;;1.80;;
31004;SDS011;17676;52.254;4.490;2023-05-10T08:42:04;1.90;;;1.58;;
31004;SDS011;17676;52.254;4.490;2023-05-10T08:44:34;2.20;;;2.00;;
31004;SDS011;17676;52.254;4.490;2023-05-10T08:47:05;3.70;;;2.03;;
31004;SDS011;17676;52.254;4.490;2023-05-10T08:49:32;2.30;;;2.10;;
31004;SDS011;17676;52.254;4.490;2023-05-10T08:51:59;3.58;;;2.30;;
31004;SDS011;17676;52.254;4.490;2023-05-10T08:54:28;2.58;;;2.38;;
31004;SDS011;17676;52.254;4.490;2023-05-10T08:56:55;3.10;;;2.90;;
31004;SDS011;17676;52.254;4.490;2023-05-10T08:59:22;3.72;;;3.42;;
31004;SDS011;17676;52.254;4.490;2023-05-10T09:01:48;3.60;;;3.40;;
31004;SDS011;17676;52.254;4.490;2023-05-10T09:04:15;4.88;;;4.40;;
31004;SDS011;17676;52.254;4.490;2023-05-10T09:06:41;4.95;;;4.55;;
31004;SDS011;17676;52.254;4.490;2023-05-10T09:09:06;6.13;;;5.57;;
31004;SDS011;17676;52.254;4.490;2023-05-10T09:11:32;7.70;;;6.13;;
31004;SDS011;17676;52.254;4.490;2023-05-10T09:13:58;8.82;;;6.85;;
31004;SDS011;17676;52.254;4.490;2023-05-10T09:16:24;8.93;;;7.07;;
31004;SDS011;17676;52.254;4.490;2023-05-10T09:18:50;11.30;;;8.15;;
31004;SDS011;17676;52.254;4.490;2023-05-10T09:21:16;11.40;;;10.13;;
31004;SDS011;17676;52.254;4.490;2023-05-10T09:23:45;12.52;;;8.95;;
31004;SDS011;17676;52.254;4.490;2023-05-10T09:26:11;10.82;;;8.93;;
31004;SDS011;17676;52.254;4.490;2023-05-10T09:28:56;12.32;;;10.55;;
31004;SDS011;17676;52.254;4.490;2023-05-10T09:31:23;15.45;;;10.25;;
31004;SDS011;17676;52.254;4.490;2023-05-10T09:33:50;14.80;;;10.18;;
31004;SDS011;17676;52.254;4.490;2023-05-10T09:36:17;12.40;;;9.30;;
31004;SDS011;17676;52.254;4.490;2023-05-10T09:38:46;14.73;;;10.18;;
31004;SDS011;17676;52.254;4.490;2023-05-10T09:41:25;17.15;;;11.07;;
31004;SDS011;17676;52.254;4.490;2023-05-10T09:43:55;16.60;;;10.02;;
31004;SDS011;17676;52.254;4.490;2023-05-10T09:46:21;21.10;;;11.52;;
31004;SDS011;17676;52.254;4.490;2023-05-10T09:48:50;18.50;;;10.38;;
31004;SDS011;17676;52.254;4.490;2023-05-10T09:51:23;19.05;;;11.32;;
31004;SDS011;17676;52.254;4.490;2023-05-10T09:54:11;18.40;;;10.80;;
31004;SDS011;17676;52.254;4.490;2023-05-10T09:56:39;24.27;;;12.93;;
31004;SDS011;17676;52.254;4.490;2023-05-10T09:59:06;18.00;;;11.77;;
31004;SDS011;17676;52.254;4.490;2023-05-10T10:01:35;20.17;;;12.02;;
31004;SDS011;17676;52.254;4.490;2023-05-10T10:04:05;23.13;;;13.10;;
31004;SDS011;17676;52.254;4.490;2023-05-10T10:06:38;20.20;;;12.65;;
31004;SDS011;17676;52.254;4.490;2023-05-10T10:09:08;24.70;;;13.02;;
31004;SDS011;17676;52.254;4.490;2023-05-10T10:11:34;22.13;;;13.40;;
31004;SDS011;17676;52.254;4.490;2023-05-10T10:14:02;24.63;;;13.35;;
31004;SDS011;17676;52.254;4.490;2023-05-10T10:16:31;17.73;;;10.63;;
31004;SDS011;17676;52.254;4.490;2023-05-10T10:18:57;17.52;;;10.82;;
31004;SDS011;17676;52.254;4.490;2023-05-10T10:21:23;14.98;;;10.32;;
31004;SDS011;17676;52.254;4.490;2023-05-10T10:23:49;16.27;;;11.43;;
31004;SDS011;17676;52.254;4.490;2023-05-10T10:26:16;18.25;;;11.40;;
31004;SDS011;17676;52.254;4.490;2023-05-10T10:31:47;16.85;;;10.55;;
31004;SDS011;17676;52.254;4.490;2023-05-10T10:34:33;22.20;;;12.73;;
31004;SDS011;17676;52.254;4.490;2023-05-10T10:37:03;22.65;;;12.45;;
31004;SDS011;17676;52.254;4.490;2023-05-10T10:39:30;23.60;;;12.85;;
31004;SDS011;17676;52.254;4.490;2023-05-10T10:41:57;31.20;;;13.60;;
31004;SDS011;17676;52.254;4.490;2023-05-10T10:47:11;31.70;;;14.00;;
31004;SDS011;17676;52.254;4.490;2023-05-10T10:49:50;32.20;;;14.43;;
31004;SDS011;17676;52.254;4.490;2023-05-10T10:52:27;32.67;;;13.68;;
31004;SDS011;17676;52.254;4.490;2023-05-10T10:57:42;31.45;;;14.93;;
31004;SDS011;17676;52.254;4.490;2023-05-10T11:03:04;45.70;;;13.60;;
31004;SDS011;17676;52.254;4.490;2023-05-10T11:08:09;31.33;;;13.60;;
31004;SDS011;17676;52.254;4.490;2023-05-10T11:16:15;39.08;;;15.93;;
31004;SDS011;17676;52.254;4.490;2023-05-10T11:19:18;38.15;;;15.95;;
31004;SDS011;17676;52.254;4.490;2023-05-10T11:21:44;39.15;;;14.52;;
31004;SDS011;17676;52.254;4.490;2023-05-10T11:24:15;30.35;;;13.27;;
31004;SDS011;17676;52.254;4.490;2023-05-10T11:26:46;33.53;;;11.73;;
31004;SDS011;17676;52.254;4.490;2023-05-10T11:29:16;30.88;;;13.13;;
31004;SDS011;17676;52.254;4.490;2023-05-10T11:31:45;35.90;;;13.05;;
31004;SDS011;17676;52.254;4.490;2023-05-10T11:34:35;35.72;;;13.25;;
31004;SDS011;17676;52.254;4.490;2023-05-10T11:37:01;45.72;;;14.25;;
31004;SDS011;17676;52.254;4.490;2023-05-10T11:39:27;35.90;;;12.55;;
31004;SDS011;17676;52.254;4.490;2023-05-10T11:41:56;41.28;;;13.98;;
31004;SDS011;17676;52.254;4.490;2023-05-10T11:44:23;33.50;;;13.18;;
31004;SDS011;17676;52.254;4.490;2023-05-10T11:46:53;29.42;;;12.50;;
31004;SDS011;17676;52.254;4.490;2023-05-10T11:49:20;37.00;;;12.40;;
31004;SDS011;17676;52.254;4.490;2023-05-10T11:51:48;34.88;;;11.95;;
31004;SDS011;17676;52.254;4.490;2023-05-10T11:54:13;27.65;;;11.50;;
31004;SDS011;17676;52.254;4.490;2023-05-10T11:56:39;27.65;;;11.77;;
31004;SDS011;17676;52.254;4.490;2023-05-10T11:59:06;26.75;;;10.68;;
31004;SDS011;17676;52.254;4.490;2023-05-10T12:01:33;28.05;;;11.13;;
31004;SDS011;17676;52.254;4.490;2023-05-10T12:03:59;25.50;;;10.52;;
31004;SDS011;17676;52.254;4.490;2023-05-10T12:06:26;24.42;;;10.90;;
31004;SDS011;17676;52.254;4.490;2023-05-10T12:08:54;23.20;;;10.18;;
31004;SDS011;17676;52.254;4.490;2023-05-10T12:11:19;18.33;;;9.30;;
31004;SDS011;17676;52.254;4.490;2023-05-10T12:13:49;17.48;;;8.60;;
31004;SDS011;17676;52.254;4.490;2023-05-10T12:16:16;15.00;;;7.65;;
31004;SDS011;17676;52.254;4.490;2023-05-10T12:18:43;13.00;;;7.43;;
31004;SDS011;17676;52.254;4.490;2023-05-10T12:21:10;9.38;;;5.75;;
31004;SDS011;17676;52.254;4.490;2023-05-10T12:23:38;10.75;;;6.32;;
31004;SDS011;17676;52.254;4.490;2023-05-10T12:26:04;10.68;;;5.68;;
31004;SDS011;17676;52.254;4.490;2023-05-10T12:28:31;10.85;;;6.30;;
31004;SDS011;17676;52.254;4.490;2023-05-10T12:30:58;12.50;;;6.32;;
31004;SDS011;17676;52.254;4.490;2023-05-10T12:33:24;10.82;;;6.43;;
31004;SDS011;17676;52.254;4.490;2023-05-10T12:35:51;11.27;;;6.97;;
31004;SDS011;17676;52.254;4.490;2023-05-10T12:41:01;10.30;;;5.75;;
31004;SDS011;17676;52.254;4.490;2023-05-10T12:43:28;10.88;;;6.03;;
31004;SDS011;17676;52.254;4.490;2023-05-10T12:45:54;10.65;;;6.47;;
31004;SDS011;17676;52.254;4.490;2023-05-10T12:48:20;10.20;;;7.38;;
31004;SDS011;17676;52.254;4.490;2023-05-10T12:50:46;10.75;;;6.93;;
31004;SDS011;17676;52.254;4.490;2023-05-10T12:53:15;14.38;;;7.07;;
31004;SDS011;17676;52.254;4.490;2023-05-10T12:55:44;12.55;;;6.65;;
31004;SDS011;17676;52.254;4.490;2023-05-10T12:58:10;9.75;;;7.00;;
31004;SDS011;17676;52.254;4.490;2023-05-10T13:00:36;12.73;;;6.20;;
31004;SDS011;17676;52.254;4.490;2023-05-10T13:03:03;11.23;;;6.63;;
31004;SDS011;17676;52.254;4.490;2023-05-10T13:05:31;14.48;;;8.55;;
31004;SDS011;17676;52.254;4.490;2023-05-10T13:07:58;9.68;;;7.03;;
31004;SDS011;17676;52.254;4.490;2023-05-10T13:10:23;9.60;;;6.80;;
31004;SDS011;17676;52.254;4.490;2023-05-10T13:12:50;14.00;;;7.68;;
31004;SDS011;17676;52.254;4.490;2023-05-10T13:15:16;12.48;;;8.55;;
31004;SDS011;17676;52.254;4.490;2023-05-10T13:17:42;11.40;;;8.07;;
31004;SDS011;17676;52.254;4.490;2023-05-10T13:20:07;11.98;;;7.93;;
31004;SDS011;17676;52.254;4.490;2023-05-10T13:22:34;15.88;;;8.55;;
31004;SDS011;17676;52.254;4.490;2023-05-10T13:25:00;9.77;;;7.50;;
31004;SDS011;17676;52.254;4.490;2023-05-10T13:27:26;12.13;;;7.55;;
31004;SDS011;17676;52.254;4.490;2023-05-10T13:29:52;13.65;;;8.15;;
31004;SDS011;17676;52.254;4.490;2023-05-10T13:32:18;17.13;;;9.55;;
31004;SDS011;17676;52.254;4.490;2023-05-10T13:34:43;16.17;;;10.73;;
31004;SDS011;17676;52.254;4.490;2023-05-10T13:37:09;14.80;;;9.70;;
31004;SDS011;17676;52.254;4.490;2023-05-10T13:39:34;15.18;;;10.27;;
31004;SDS011;17676;52.254;4.490;2023-05-10T13:42:02;15.70;;;10.43;;
31004;SDS011;17676;52.254;4.490;2023-05-10T13:44:28;14.93;;;10.63;;
31004;SDS011;17676;52.254;4.490;2023-05-10T13:46:58;16.77;;;10.65;;
31004;SDS011;17676;52.254;4.490;2023-05-10T13:49:24;20.10;;;11.80;;
31004;SDS011;17676;52.254;4.490;2023-05-10T13:51:50;15.32;;;10.88;;
31004;SDS011;17676;52.254;4.490;2023-05-10T13:54:16;19.33;;;11.65;;
31004;SDS011;17676;52.254;4.490;2023-05-10T13:56:44;20.02;;;10.75;;
31004;SDS011;17676;52.254;4.490;2023-05-10T13:59:12;16.58;;;10.38;;
31004;SDS011;17676;52.254;4.490;2023-05-10T14:01:39;19.35;;;10.27;;
31004;SDS011;17676;52.254;4.490;2023-05-10T14:04:05;17.92;;;11.30;;
31004;SDS011;17676;52.254;4.490;2023-05-10T14:06:31;19.73;;;11.40;;
31004;SDS011;17676;52.254;4.490;2023-05-10T14:08:57;18.77;;;10.65;;
31004;SDS011;17676;52.254;4.490;2023-05-10T14:11:23;19.27;;;10.90;;
31004;SDS011;17676;52.254;4.490;2023-05-10T14:13:49;26.88;;;12.27;;
31004;SDS011;17676;52.254;4.490;2023-05-10T14:16:14;22.58;;;12.27;;
31004;SDS011;17676;52.254;4.490;2023-05-10T14:18:42;20.83;;;12.25;;
31004;SDS011;17676;52.254;4.490;2023-05-10T14:21:08;21.55;;;11.55;;
31004;SDS011;17676;52.254;4.490;2023-05-10T14:23:33;14.38;;;10.00;;
31004;SDS011;17676;52.254;4.490;2023-05-10T14:25:59;16.42;;;10.38;;
31004;SDS011;17676;52.254;4.490;2023-05-10T14:28:25;17.25;;;11.18;;
31004;SDS011;17676;52.254;4.490;2023-05-10T14:30:51;13.48;;;9.50;;
31004;SDS011;17676;52.254;4.490;2023-05-10T14:33:16;15.45;;;10.05;;
31004;SDS011;17676;52.254;4.490;2023-05-10T14:35:42;15.27;;;10.25;;
31004;SDS011;17676;52.254;4.490;2023-05-10T14:38:08;18.02;;;11.75;;
31004;SDS011;17676;52.254;4.490;2023-05-10T14:40:33;20.23;;;11.68;;
31004;SDS011;17676;52.254;4.490;2023-05-10T14:42:59;23.75;;;11.38;;
31004;SDS011;17676;52.254;4.490;2023-05-10T14:45:25;22.80;;;11.90;;
31004;SDS011;17676;52.254;4.490;2023-05-10T14:47:51;25.73;;;14.68;;
31004;SDS011;17676;52.254;4.490;2023-05-10T14:50:17;27.88;;;15.27;;
31004;SDS011;17676;52.254;4.490;2023-05-10T14:52:43;42.13;;;18.02;;
31004;SDS011;17676;52.254;4.490;2023-05-10T14:55:09;36.65;;;17.42;;
31004;SDS011;17676;52.254;4.490;2023-05-10T14:57:35;36.83;;;18.02;;
31004;SDS011;17676;52.254;4.490;2023-05-10T15:00:01;38.80;;;17.48;;
31004;SDS011;17676;52.254;4.490;2023-05-10T15:02:27;32.95;;;16.80;;
31004;SDS011;17676;52.254;4.490;2023-05-10T15:04:53;33.80;;;17.55;;